sensor_id;sensor_type;location;lat;lon;timestamp;P1;durP1;ratioP1;P2;durP2;ratioP2
22201;SDS011;11266;51.522;6.302;2023-03-31T11:06:26;9.70;;;1.80;;
22201;SDS011;11266;51.522;6.302;2023-03-31T11:07:45;9.73;;;2.58;;
22201;SDS011;11266;51.522;6.302;2023-03-31T11:12:12;8.02;;;1.90;;
22201;SDS011;11266;51.522;6.302;2023-03-31T11:14:43;8.93;;;2.10;;
22201;SDS011;11266;51.522;6.302;2023-03-31T11:16:58;13.48;;;5.00;;
22201;SDS011;11266;51.522;6.302;2023-03-31T11:18:03;13.27;;;4.20;;
22201;SDS011;11266;51.522;6.302;2023-03-31T11:19:25;13.25;;;3.10;;
22201;SDS011;11266;51.522;6.302;2023-03-31T11:20:40;12.18;;;4.00;;
22201;SDS011;11266;51.522;6.302;2023-03-31T11:21:49;14.10;;;5.95;;
22201;SDS011;11266;51.522;6.302;2023-03-31T11:22:40;18.60;;;8.30;;
22201;SDS011;11266;51.522;6.302;2023-03-31T11:23:41;12.10;;;4.65;;
22201;SDS011;11266;51.522;6.302;2023-03-31T11:24:34;9.80;;;2.85;;
22201;SDS011;11266;51.522;6.302;2023-03-31T11:25:32;13.00;;;2.60;;
22201;SDS011;11266;51.522;6.302;2023-03-31T11:27:30;8.05;;;2.17;;
22201;SDS011;11266;51.522;6.302;2023-03-31T11:30:31;8.10;;;2.20;;
22201;SDS011;11266;51.522;6.302;2023-03-31T11:38:38;9.20;;;2.22;;
22201;SDS011;11266;51.522;6.302;2023-03-31T11:42:06;9.35;;;2.13;;
22201;SDS011;11266;51.522;6.302;2023-03-31T11:43:13;10.60;;;3.20;;
22201;SDS011;11266;51.522;6.302;2023-03-31T11:44:02;10.80;;;2.55;;
22201;SDS011;11266;51.522;6.302;2023-03-31T11:45:02;10.13;;;2.30;;
22201;SDS011;11266;51.522;6.302;2023-03-31T11:46:04;9.77;;;2.50;;
22201;SDS011;11266;51.522;6.302;2023-03-31T11:47:07;11.07;;;2.95;;
22201;SDS011;11266;51.522;6.302;2023-03-31T11:47:58;10.32;;;2.28;;
22201;SDS011;11266;51.522;6.302;2023-03-31T11:48:53;6.72;;;1.95;;
22201;SDS011;11266;51.522;6.302;2023-03-31T11:49:53;10.68;;;2.58;;
22201;SDS011;11266;51.522;6.302;2023-03-31T11:50:43;10.10;;;2.67;;
22201;SDS011;11266;51.522;6.302;2023-03-31T11:51:33;8.90;;;2.10;;
22201;SDS011;11266;51.522;6.302;2023-03-31T11:52:29;6.97;;;2.03;;
22201;SDS011;11266;51.522;6.302;2023-03-31T11:53:19;15.07;;;3.03;;
22201;SDS011;11266;51.522;6.302;2023-03-31T11:54:16;12.85;;;2.90;;
22201;SDS011;11266;51.522;6.302;2023-03-31T11:55:16;12.25;;;2.20;;
22201;SDS011;11266;51.522;6.302;2023-03-31T11:56:07;9.55;;;2.35;;
22201;SDS011;11266;51.522;6.302;2023-03-31T11:56:55;9.57;;;2.53;;
22201;SDS011;11266;51.522;6.302;2023-03-31T11:57:41;10.73;;;2.70;;
22201;SDS011;11266;51.522;6.302;2023-03-31T11:59:24;15.02;;;3.35;;
22201;SDS011;11266;51.522;6.302;2023-03-31T12:00:18;15.43;;;3.50;;
22201;SDS011;11266;51.522;6.302;2023-03-31T12:01:27;13.75;;;3.10;;
22201;SDS011;11266;51.522;6.302;2023-03-31T12:02:30;16.63;;;5.80;;
22201;SDS011;11266;51.522;6.302;2023-03-31T12:04:57;16.50;;;5.18;;
22201;SDS011;11266;51.522;6.302;2023-03-31T12:06:17;14.98;;;4.35;;
22201;SDS011;11266;51.522;6.302;2023-03-31T12:07:09;25.70;;;8.05;;
22201;SDS011;11266;51.522;6.302;2023-03-31T12:08:02;19.80;;;5.78;;
22201;SDS011;11266;51.522;6.302;2023-03-31T12:09:16;20.08;;;7.07;;
22201;SDS011;11266;51.522;6.302;2023-03-31T12:10:19;15.88;;;4.35;;
22201;SDS011;11266;51.522;6.302;2023-03-31T12:11:11;14.98;;;4.93;;
22201;SDS011;11266;51.522;6.302;2023-03-31T12:12:11;17.63;;;4.57;;
22201;SDS011;11266;51.522;6.302;2023-03-31T12:15:50;11.30;;;3.50;;
22201;SDS011;11266;51.522;6.302;2023-03-31T12:16:53;11.70;;;3.55;;
22201;SDS011;11266;51.522;6.302;2023-03-31T12:17:44;10.88;;;2.60;;
22201;SDS011;11266;51.522;6.302;2023-03-31T12:18:36;10.43;;;2.50;;
22201;SDS011;11266;51.522;6.302;2023-03-31T12:19:52;6.53;;;2.08;;
22201;SDS011;11266;51.522;6.302;2023-03-31T12:20:43;11.90;;;2.70;;
22201;SDS011;11266;51.522;6.302;2023-03-31T12:21:33;20.45;;;4.25;;
22201;SDS011;11266;51.522;6.302;2023-03-31T12:22:23;8.65;;;2.92;;
22201;SDS011;11266;51.522;6.302;2023-03-31T12:23:23;17.40;;;6.05;;
22201;SDS011;11266;51.522;6.302;2023-03-31T12:24:14;20.55;;;6.78;;
22201;SDS011;11266;51.522;6.302;2023-03-31T12:25:00;14.27;;;6.30;;
22201;SDS011;11266;51.522;6.302;2023-03-31T12:25:50;16.35;;;4.78;;
22201;SDS011;11266;51.522;6.302;2023-03-31T12:28:26;14.75;;;3.67;;
22201;SDS011;11266;51.522;6.302;2023-03-31T12:31:26;9.32;;;2.53;;
22201;SDS011;11266;51.522;6.302;2023-03-31T12:32:16;16.30;;;3.08;;
22201;SDS011;11266;51.522;6.302;2023-03-31T12:33:21;13.27;;;2.80;;
22201;SDS011;11266;51.522;6.302;2023-03-31T12:34:13;12.77;;;2.83;;
22201;SDS011;11266;51.522;6.302;2023-03-31T12:40:13;11.25;;;2.50;;
22201;SDS011;11266;51.522;6.302;2023-03-31T12:45:29;13.05;;;2.95;;
22201;SDS011;11266;51.522;6.302;2023-03-31T12:49:06;10.57;;;2.78;;
22201;SDS011;11266;51.522;6.302;2023-03-31T12:50:07;10.07;;;2.80;;
22201;SDS011;11266;51.522;6.302;2023-03-31T12:52:38;10.88;;;2.45;;
22201;SDS011;11266;51.522;6.302;2023-03-31T12:53:54;13.60;;;2.65;;
22201;SDS011;11266;51.522;6.302;2023-03-31T12:57:47;14.07;;;4.85;;
22201;SDS011;11266;51.522;6.302;2023-03-31T12:58:39;16.92;;;4.20;;
22201;SDS011;11266;51.522;6.302;2023-03-31T13:00:24;12.50;;;5.80;;
22201;SDS011;11266;51.522;6.302;2023-03-31T13:01:12;27.13;;;7.13;;
22201;SDS011;11266;51.522;6.302;2023-03-31T13:04:24;10.43;;;3.75;;
22201;SDS011;11266;51.522;6.302;2023-03-31T13:07:34;15.73;;;4.38;;
22201;SDS011;11266;51.522;6.302;2023-03-31T13:09:43;14.73;;;2.70;;
22201;SDS011;11266;51.522;6.302;2023-03-31T13:11:45;12.95;;;3.28;;
22201;SDS011;11266;51.522;6.302;2023-03-31T13:12:34;7.47;;;2.50;;
22201;SDS011;11266;51.522;6.302;2023-03-31T13:13:20;11.27;;;4.28;;
22201;SDS011;11266;51.522;6.302;2023-03-31T13:14:11;11.85;;;3.63;;
22201;SDS011;11266;51.522;6.302;2023-03-31T13:15:11;8.48;;;2.90;;
22201;SDS011;11266;51.522;6.302;2023-03-31T13:15:59;11.27;;;2.92;;
22201;SDS011;11266;51.522;6.302;2023-03-31T13:16:49;9.60;;;2.78;;
22201;SDS011;11266;51.522;6.302;2023-03-31T13:17:40;13.32;;;2.33;;
22201;SDS011;11266;51.522;6.302;2023-03-31T13:18:41;12.80;;;2.63;;
22201;SDS011;11266;51.522;6.302;2023-03-31T13:19:36;10.25;;;2.50;;
22201;SDS011;11266;51.522;6.302;2023-03-31T13:20:32;8.80;;;2.70;;
22201;SDS011;11266;51.522;6.302;2023-03-31T13:21:22;9.63;;;2.15;;
22201;SDS011;11266;51.522;6.302;2023-03-31T13:22:26;9.10;;;2.50;;
22201;SDS011;11266;51.522;6.302;2023-03-31T13:24:11;8.13;;;2.20;;
22201;SDS011;11266;51.522;6.302;2023-03-31T13:29:58;10.57;;;2.33;;
22201;SDS011;11266;51.522;6.302;2023-03-31T13:30:44;11.07;;;2.28;;
22201;SDS011;11266;51.522;6.302;2023-03-31T13:32:04;8.48;;;2.00;;
22201;SDS011;11266;51.522;6.302;2023-03-31T13:33:00;7.13;;;2.10;;
22201;SDS011;11266;51.522;6.302;2023-03-31T13:34:07;9.50;;;3.22;;
22201;SDS011;11266;51.522;6.302;2023-03-31T13:34:57;9.30;;;2.90;;
22201;SDS011;11266;51.522;6.302;2023-03-31T13:35:53;7.50;;;1.90;;
22201;SDS011;11266;51.522;6.302;2023-03-31T13:39:36;7.25;;;1.92;;
22201;SDS011;11266;51.522;6.302;2023-03-31T13:42:18;6.53;;;1.75;;
22201;SDS011;11266;51.522;6.302;2023-03-31T13:43:21;8.73;;;1.95;;
22201;SDS011;11266;51.522;6.302;2023-03-31T13:48:41;7.70;;;2.17;;
22201;SDS011;11266;51.522;6.302;2023-03-31T13:52:46;6.82;;;1.73;;
22201;SDS011;11266;51.522;6.302;2023-03-31T13:57:30;9.73;;;2.13;;
22201;SDS011;11266;51.522;6.302;2023-03-31T14:01:53;12.15;;;2.92;;
22201;SDS011;11266;51.522;6.302;2023-03-31T14:04:18;8.60;;;2.03;;
22201;SDS011;11266;51.522;6.302;2023-03-31T14:05:27;7.18;;;2.03;;
22201;SDS011;11266;51.522;6.302;2023-03-31T14:06:36;6.22;;;1.90;;
22201;SDS011;11266;51.522;6.302;2023-03-31T14:07:28;11.57;;;2.28;;
22201;SDS011;11266;51.522;6.302;2023-03-31T14:09:24;8.60;;;2.25;;
22201;SDS011;11266;51.522;6.302;2023-03-31T14:10:31;7.82;;;1.73;;
22201;SDS011;11266;51.522;6.302;2023-03-31T14:11:24;5.10;;;1.52;;
22201;SDS011;11266;51.522;6.302;2023-03-31T14:12:18;5.60;;;1.73;;
22201;SDS011;11266;51.522;6.302;2023-03-31T14:13:16;8.60;;;1.92;;
22201;SDS011;11266;51.522;6.302;2023-03-31T14:14:10;6.35;;;1.67;;
22201;SDS011;11266;51.522;6.302;2023-03-31T14:15:00;8.75;;;2.03;;
22201;SDS011;11266;51.522;6.302;2023-03-31T14:16:53;9.23;;;2.25;;
22201;SDS011;11266;51.522;6.302;2023-03-31T14:17:41;7.63;;;1.73;;
22201;SDS011;11266;51.522;6.302;2023-03-31T14:18:29;6.35;;;1.90;;
22201;SDS011;11266;51.522;6.302;2023-03-31T14:24:28;9.27;;;2.00;;
22201;SDS011;11266;51.522;6.302;2023-03-31T14:26:35;9.52;;;2.30;;
22201;SDS011;11266;51.522;6.302;2023-03-31T14:30:15;6.70;;;1.85;;
22201;SDS011;11266;51.522;6.302;2023-03-31T14:37:08;22.33;;;7.93;;
22201;SDS011;11266;51.522;6.302;2023-03-31T14:37:58;33.95;;;14.43;;
22201;SDS011;11266;51.522;6.302;2023-03-31T14:38:47;21.05;;;8.25;;
22201;SDS011;11266;51.522;6.302;2023-03-31T14:39:40;16.02;;;8.32;;
22201;SDS011;11266;51.522;6.302;2023-03-31T14:40:34;19.20;;;7.63;;
22201;SDS011;11266;51.522;6.302;2023-03-31T14:41:29;12.95;;;4.38;;
22201;SDS011;11266;51.522;6.302;2023-03-31T14:42:16;9.07;;;2.65;;
22201;SDS011;11266;51.522;6.302;2023-03-31T14:43:09;12.02;;;2.85;;
22201;SDS011;11266;51.522;6.302;2023-03-31T14:44:06;9.55;;;2.38;;
22201;SDS011;11266;51.522;6.302;2023-03-31T14:44:57;10.45;;;2.63;;
22201;SDS011;11266;51.522;6.302;2023-03-31T14:46:02;13.10;;;2.10;;
22201;SDS011;11266;51.522;6.302;2023-03-31T14:46:50;8.18;;;2.05;;
22201;SDS011;11266;51.522;6.302;2023-03-31T14:47:36;4.70;;;1.50;;
22201;SDS011;11266;51.522;6.302;2023-03-31T14:48:22;5.95;;;1.52;;
22201;SDS011;11266;51.522;6.302;2023-03-31T14:49:18;4.50;;;1.42;;
22201;SDS011;11266;51.522;6.302;2023-03-31T14:51:01;6.95;;;1.98;;
22201;SDS011;11266;51.522;6.302;2023-03-31T14:51:48;5.43;;;1.58;;
22201;SDS011;11266;51.522;6.302;2023-03-31T14:52:37;5.28;;;1.35;;
22201;SDS011;11266;51.522;6.302;2023-03-31T14:53:25;4.03;;;1.40;;
22201;SDS011;11266;51.522;6.302;2023-03-31T14:54:14;6.65;;;1.73;;
22201;SDS011;11266;51.522;6.302;2023-03-31T14:55:12;6.28;;;1.77;;
22201;SDS011;11266;51.522;6.302;2023-03-31T14:56:03;5.00;;;1.30;;
22201;SDS011;11266;51.522;6.302;2023-03-31T14:56:53;3.35;;;0.93;;
22201;SDS011;11266;51.522;6.302;2023-03-31T14:57:43;5.88;;;1.75;;
22201;SDS011;11266;51.522;6.302;2023-03-31T14:58:33;3.97;;;1.40;;
22201;SDS011;11266;51.522;6.302;2023-03-31T14:59:25;4.47;;;1.40;;
22201;SDS011;11266;51.522;6.302;2023-03-31T15:00:19;4.07;;;1.27;;
22201;SDS011;11266;51.522;6.302;2023-03-31T15:01:16;5.38;;;1.23;;
22201;SDS011;11266;51.522;6.302;2023-03-31T15:02:09;4.15;;;1.27;;
22201;SDS011;11266;51.522;6.302;2023-03-31T15:03:08;5.00;;;1.60;;
22201;SDS011;11266;51.522;6.302;2023-03-31T15:03:58;6.60;;;1.75;;
22201;SDS011;11266;51.522;6.302;2023-03-31T15:04:47;7.13;;;1.60;;
22201;SDS011;11266;51.522;6.302;2023-03-31T15:05:36;5.13;;;1.23;;
22201;SDS011;11266;51.522;6.302;2023-03-31T15:06:23;4.72;;;1.30;;
22201;SDS011;11266;51.522;6.302;2023-03-31T15:07:11;7.60;;;1.90;;
22201;SDS011;11266;51.522;6.302;2023-03-31T15:07:59;4.45;;;1.40;;
22201;SDS011;11266;51.522;6.302;2023-03-31T15:08:47;8.48;;;1.95;;
22201;SDS011;11266;51.522;6.302;2023-03-31T15:09:34;4.68;;;1.27;;
22201;SDS011;11266;51.522;6.302;2023-03-31T15:10:20;9.18;;;1.40;;
22201;SDS011;11266;51.522;6.302;2023-03-31T15:11:11;5.63;;;1.33;;
22201;SDS011;11266;51.522;6.302;2023-03-31T15:12:03;4.63;;;1.20;;
22201;SDS011;11266;51.522;6.302;2023-03-31T15:12:59;6.57;;;1.77;;
22201;SDS011;11266;51.522;6.302;2023-03-31T15:13:51;8.70;;;1.73;;
22201;SDS011;11266;51.522;6.302;2023-03-31T15:14:47;6.05;;;1.35;;
22201;SDS011;11266;51.522;6.302;2023-03-31T15:15:35;7.20;;;1.40;;
22201;SDS011;11266;51.522;6.302;2023-03-31T15:16:32;4.20;;;1.23;;
22201;SDS011;11266;51.522;6.302;2023-03-31T15:17:27;4.95;;;0.90;;
22201;SDS011;11266;51.522;6.302;2023-03-31T15:18:17;6.20;;;1.15;;
22201;SDS011;11266;51.522;6.302;2023-03-31T15:19:19;6.10;;;1.30;;
22201;SDS011;11266;51.522;6.302;2023-03-31T15:20:22;4.82;;;1.23;;
22201;SDS011;11266;51.522;6.302;2023-03-31T15:21:18;4.38;;;1.10;;
22201;SDS011;11266;51.522;6.302;2023-03-31T15:22:14;6.28;;;1.40;;
22201;SDS011;11266;51.522;6.302;2023-03-31T15:23:04;3.20;;;0.90;;
22201;SDS011;11266;51.522;6.302;2023-03-31T15:24:11;8.20;;;1.50;;
22201;SDS011;11266;51.522;6.302;2023-03-31T15:25:00;4.35;;;1.45;;
22201;SDS011;11266;51.522;6.302;2023-03-31T15:25:50;6.93;;;1.70;;
22201;SDS011;11266;51.522;6.302;2023-03-31T15:27:06;6.13;;;1.55;;
22201;SDS011;11266;51.522;6.302;2023-03-31T15:27:59;3.70;;;0.82;;
22201;SDS011;11266;51.522;6.302;2023-03-31T15:28:51;5.63;;;1.35;;
22201;SDS011;11266;51.522;6.302;2023-03-31T15:29:46;4.97;;;1.30;;
22201;SDS011;11266;51.522;6.302;2023-03-31T15:30:35;4.15;;;1.45;;
22201;SDS011;11266;51.522;6.302;2023-03-31T15:31:21;4.28;;;1.40;;
22201;SDS011;11266;51.522;6.302;2023-03-31T15:32:23;3.13;;;1.20;;
22201;SDS011;11266;51.522;6.302;2023-03-31T15:33:21;4.80;;;1.30;;
22201;SDS011;11266;51.522;6.302;2023-03-31T15:34:30;4.47;;;1.27;;
22201;SDS011;11266;51.522;6.302;2023-03-31T15:35:25;7.30;;;1.30;;
22201;SDS011;11266;51.522;6.302;2023-03-31T15:36:19;4.45;;;1.20;;
22201;SDS011;11266;51.522;6.302;2023-03-31T15:37:06;4.00;;;1.13;;
22201;SDS011;11266;51.522;6.302;2023-03-31T15:37:53;5.47;;;1.27;;
22201;SDS011;11266;51.522;6.302;2023-03-31T15:38:48;6.38;;;1.63;;
22201;SDS011;11266;51.522;6.302;2023-03-31T15:39:43;5.78;;;1.30;;
22201;SDS011;11266;51.522;6.302;2023-03-31T15:41:16;3.65;;;0.90;;
22201;SDS011;11266;51.522;6.302;2023-03-31T15:42:02;7.93;;;1.40;;
22201;SDS011;11266;51.522;6.302;2023-03-31T15:42:52;3.33;;;1.15;;
22201;SDS011;11266;51.522;6.302;2023-03-31T15:43:48;4.47;;;1.20;;
22201;SDS011;11266;51.522;6.302;2023-03-31T15:47:27;4.43;;;1.17;;
22201;SDS011;11266;51.522;6.302;2023-03-31T15:48:21;4.15;;;1.20;;
22201;SDS011;11266;51.522;6.302;2023-03-31T15:50:42;6.57;;;1.50;;
22201;SDS011;11266;51.522;6.302;2023-03-31T15:51:38;6.18;;;1.30;;
22201;SDS011;11266;51.522;6.302;2023-03-31T15:53:50;4.30;;;1.15;;
22201;SDS011;11266;51.522;6.302;2023-03-31T15:55:30;3.63;;;1.10;;
22201;SDS011;11266;51.522;6.302;2023-03-31T15:57:22;8.45;;;1.77;;
22201;SDS011;11266;51.522;6.302;2023-03-31T15:58:16;6.13;;;1.17;;
22201;SDS011;11266;51.522;6.302;2023-03-31T15:59:05;1.92;;;1.00;;
22201;SDS011;11266;51.522;6.302;2023-03-31T16:00:18;4.20;;;1.23;;
22201;SDS011;11266;51.522;6.302;2023-03-31T16:01:31;3.42;;;1.50;;
22201;SDS011;11266;51.522;6.302;2023-03-31T16:02:23;4.95;;;1.60;;
22201;SDS011;11266;51.522;6.302;2023-03-31T16:03:53;5.13;;;1.20;;
22201;SDS011;11266;51.522;6.302;2023-03-31T16:04:22;3.78;;;1.20;;
22201;SDS011;11266;51.522;6.302;2023-03-31T16:05:48;7.43;;;1.40;;
22201;SDS011;11266;51.522;6.302;2023-03-31T16:06:28;5.18;;;1.40;;
22201;SDS011;11266;51.522;6.302;2023-03-31T16:07:23;3.70;;;1.23;;
22201;SDS011;11266;51.522;6.302;2023-03-31T16:08:16;7.25;;;1.50;;
22201;SDS011;11266;51.522;6.302;2023-03-31T16:09:20;5.53;;;1.40;;
22201;SDS011;11266;51.522;6.302;2023-03-31T16:10:17;5.35;;;1.33;;
22201;SDS011;11266;51.522;6.302;2023-03-31T16:11:07;4.22;;;1.17;;
22201;SDS011;11266;51.522;6.302;2023-03-31T16:11:58;4.03;;;1.15;;
22201;SDS011;11266;51.522;6.302;2023-03-31T16:13:43;4.00;;;1.20;;
22201;SDS011;11266;51.522;6.302;2023-03-31T16:14:35;3.75;;;1.17;;
22201;SDS011;11266;51.522;6.302;2023-03-31T16:15:35;4.43;;;1.20;;
22201;SDS011;11266;51.522;6.302;2023-03-31T16:16:25;3.55;;;1.00;;
22201;SDS011;11266;51.522;6.302;2023-03-31T16:17:18;3.78;;;1.00;;
22201;SDS011;11266;51.522;6.302;2023-03-31T16:19:21;5.30;;;1.13;;
22201;SDS011;11266;51.522;6.302;2023-03-31T16:20:21;4.60;;;1.30;;
22201;SDS011;11266;51.522;6.302;2023-03-31T16:21:11;3.65;;;1.48;;
22201;SDS011;11266;51.522;6.302;2023-03-31T16:22:02;3.05;;;1.08;;
22201;SDS011;11266;51.522;6.302;2023-03-31T16:22:50;4.13;;;1.25;;
22201;SDS011;11266;51.522;6.302;2023-03-31T16:23:39;4.03;;;0.98;;
22201;SDS011;11266;51.522;6.302;2023-03-31T16:24:33;2.45;;;0.93;;
22201;SDS011;11266;51.522;6.302;2023-03-31T16:25:21;6.15;;;0.93;;
22201;SDS011;11266;51.522;6.302;2023-03-31T16:26:10;3.30;;;0.90;;
22201;SDS011;11266;51.522;6.302;2023-03-31T16:26:58;2.63;;;0.88;;
22201;SDS011;11266;51.522;6.302;2023-03-31T16:28:07;4.88;;;1.30;;
22201;SDS011;11266;51.522;6.302;2023-03-31T16:29:06;5.07;;;1.27;;
22201;SDS011;11266;51.522;6.302;2023-03-31T16:30:07;5.25;;;1.10;;
22201;SDS011;11266;51.522;6.302;2023-03-31T16:31:04;7.38;;;1.30;;
22201;SDS011;11266;51.522;6.302;2023-03-31T16:32:14;2.85;;;0.82;;
22201;SDS011;11266;51.522;6.302;2023-03-31T16:33:12;2.85;;;0.93;;
22201;SDS011;11266;51.522;6.302;2023-03-31T16:34:09;4.15;;;1.00;;
22201;SDS011;11266;51.522;6.302;2023-03-31T16:34:57;2.30;;;0.73;;
22201;SDS011;11266;51.522;6.302;2023-03-31T16:35:47;2.05;;;0.60;;
22201;SDS011;11266;51.522;6.302;2023-03-31T16:36:40;6.43;;;1.15;;
22201;SDS011;11266;51.522;6.302;2023-03-31T16:37:29;5.13;;;0.90;;
22201;SDS011;11266;51.522;6.302;2023-03-31T16:38:15;2.50;;;1.00;;
22201;SDS011;11266;51.522;6.302;2023-03-31T16:39:02;2.15;;;0.70;;
22201;SDS011;11266;51.522;6.302;2023-03-31T16:39:49;2.40;;;0.90;;
22201;SDS011;11266;51.522;6.302;2023-03-31T16:40:36;2.65;;;0.90;;
22201;SDS011;11266;51.522;6.302;2023-03-31T16:41:28;3.08;;;0.70;;
22201;SDS011;11266;51.522;6.302;2023-03-31T16:42:15;5.25;;;0.98;;
22201;SDS011;11266;51.522;6.302;2023-03-31T16:43:05;1.98;;;0.85;;
22201;SDS011;11266;51.522;6.302;2023-03-31T16:43:52;4.82;;;1.50;;
22201;SDS011;11266;51.522;6.302;2023-03-31T16:44:40;2.97;;;0.90;;
22201;SDS011;11266;51.522;6.302;2023-03-31T16:45:26;4.40;;;0.93;;
22201;SDS011;11266;51.522;6.302;2023-03-31T16:46:12;5.78;;;1.10;;
22201;SDS011;11266;51.522;6.302;2023-03-31T16:46:58;3.22;;;1.30;;
22201;SDS011;11266;51.522;6.302;2023-03-31T16:47:44;5.03;;;1.10;;
22201;SDS011;11266;51.522;6.302;2023-03-31T16:48:32;5.13;;;1.60;;
22201;SDS011;11266;51.522;6.302;2023-03-31T16:49:21;2.65;;;0.98;;
22201;SDS011;11266;51.522;6.302;2023-03-31T16:50:07;2.90;;;0.75;;
22201;SDS011;11266;51.522;6.302;2023-03-31T16:50:57;2.42;;;0.93;;
22201;SDS011;11266;51.522;6.302;2023-03-31T16:51:46;4.05;;;0.88;;
22201;SDS011;11266;51.522;6.302;2023-03-31T16:52:31;2.92;;;0.90;;
22201;SDS011;11266;51.522;6.302;2023-03-31T16:53:18;4.20;;;1.17;;
22201;SDS011;11266;51.522;6.302;2023-03-31T16:54:06;3.05;;;0.80;;
22201;SDS011;11266;51.522;6.302;2023-03-31T16:54:51;2.47;;;0.80;;
22201;SDS011;11266;51.522;6.302;2023-03-31T16:55:37;3.03;;;1.08;;
22201;SDS011;11266;51.522;6.302;2023-03-31T16:56:23;6.88;;;1.58;;
22201;SDS011;11266;51.522;6.302;2023-03-31T16:57:08;2.70;;;0.82;;
22201;SDS011;11266;51.522;6.302;2023-03-31T16:57:54;3.90;;;1.17;;
22201;SDS011;11266;51.522;6.302;2023-03-31T16:58:42;2.83;;;1.00;;
22201;SDS011;11266;51.522;6.302;2023-03-31T16:59:28;0.75;;;0.60;;
22201;SDS011;11266;51.522;6.302;2023-03-31T17:00:16;2.10;;;0.90;;
22201;SDS011;11266;51.522;6.302;2023-03-31T17:01:02;4.38;;;0.98;;
22201;SDS011;11266;51.522;6.302;2023-03-31T17:01:48;2.60;;;1.30;;
22201;SDS011;11266;51.522;6.302;2023-03-31T17:02:36;3.50;;;0.90;;
22201;SDS011;11266;51.522;6.302;2023-03-31T17:03:22;3.50;;;1.10;;
22201;SDS011;11266;51.522;6.302;2023-03-31T17:04:10;3.05;;;0.90;;
22201;SDS011;11266;51.522;6.302;2023-03-31T17:04:56;2.15;;;0.85;;
22201;SDS011;11266;51.522;6.302;2023-03-31T17:05:43;2.40;;;0.90;;
22201;SDS011;11266;51.522;6.302;2023-03-31T17:06:30;3.58;;;0.90;;
22201;SDS011;11266;51.522;6.302;2023-03-31T17:07:16;2.20;;;0.85;;
22201;SDS011;11266;51.522;6.302;2023-03-31T17:08:01;3.45;;;0.90;;
22201;SDS011;11266;51.522;6.302;2023-03-31T17:08:47;2.25;;;0.90;;
22201;SDS011;11266;51.522;6.302;2023-03-31T17:09:33;4.03;;;0.80;;
22201;SDS011;11266;51.522;6.302;2023-03-31T17:10:19;7.90;;;1.25;;
22201;SDS011;11266;51.522;6.302;2023-03-31T17:11:08;2.88;;;0.98;;
22201;SDS011;11266;51.522;6.302;2023-03-31T17:11:55;3.20;;;1.00;;
22201;SDS011;11266;51.522;6.302;2023-03-31T17:12:41;3.70;;;1.08;;
22201;SDS011;11266;51.522;6.302;2023-03-31T17:13:30;3.28;;;0.85;;
22201;SDS011;11266;51.522;6.302;2023-03-31T17:14:18;1.85;;;0.85;;
22201;SDS011;11266;51.522;6.302;2023-03-31T17:15:04;5.15;;;1.38;;
22201;SDS011;11266;51.522;6.302;2023-03-31T17:15:50;4.35;;;0.82;;
22201;SDS011;11266;51.522;6.302;2023-03-31T17:16:37;5.47;;;1.20;;
22201;SDS011;11266;51.522;6.302;2023-03-31T17:17:23;5.32;;;1.60;;
22201;SDS011;11266;51.522;6.302;2023-03-31T17:18:09;2.50;;;0.98;;
22201;SDS011;11266;51.522;6.302;2023-03-31T17:19:00;2.67;;;1.20;;
22201;SDS011;11266;51.522;6.302;2023-03-31T17:19:48;4.38;;;1.00;;
22201;SDS011;11266;51.522;6.302;2023-03-31T17:20:34;4.85;;;1.10;;
22201;SDS011;11266;51.522;6.302;2023-03-31T17:21:20;2.45;;;0.75;;
22201;SDS011;11266;51.522;6.302;2023-03-31T17:22:06;2.08;;;0.82;;
22201;SDS011;11266;51.522;6.302;2023-03-31T17:22:52;4.18;;;1.10;;
22201;SDS011;11266;51.522;6.302;2023-03-31T17:23:38;3.22;;;1.00;;
22201;SDS011;11266;51.522;6.302;2023-03-31T17:24:24;3.42;;;0.95;;
22201;SDS011;11266;51.522;6.302;2023-03-31T17:25:12;4.78;;;0.98;;
22201;SDS011;11266;51.522;6.302;2023-03-31T17:25:58;4.55;;;1.02;;
22201;SDS011;11266;51.522;6.302;2023-03-31T17:26:44;3.45;;;1.20;;
22201;SDS011;11266;51.522;6.302;2023-03-31T17:27:34;5.63;;;1.02;;
22201;SDS011;11266;51.522;6.302;2023-03-31T17:28:19;4.47;;;1.30;;
22201;SDS011;11266;51.522;6.302;2023-03-31T17:29:05;2.95;;;0.82;;
22201;SDS011;11266;51.522;6.302;2023-03-31T17:29:50;4.38;;;1.13;;
22201;SDS011;11266;51.522;6.302;2023-03-31T17:30:36;3.83;;;1.02;;
22201;SDS011;11266;51.522;6.302;2023-03-31T17:31:28;3.22;;;1.38;;
22201;SDS011;11266;51.522;6.302;2023-03-31T17:32:15;2.67;;;0.93;;
22201;SDS011;11266;51.522;6.302;2023-03-31T17:33:01;3.75;;;1.00;;
22201;SDS011;11266;51.522;6.302;2023-03-31T17:33:48;1.90;;;0.90;;
22201;SDS011;11266;51.522;6.302;2023-03-31T17:34:33;2.33;;;0.80;;
22201;SDS011;11266;51.522;6.302;2023-03-31T17:35:19;1.73;;;0.82;;
22201;SDS011;11266;51.522;6.302;2023-03-31T17:36:06;4.68;;;1.10;;
22201;SDS011;11266;51.522;6.302;2023-03-31T17:36:52;3.92;;;1.00;;
22201;SDS011;11266;51.522;6.302;2023-03-31T17:37:39;3.13;;;0.90;;
22201;SDS011;11266;51.522;6.302;2023-03-31T17:38:25;2.28;;;0.80;;
22201;SDS011;11266;51.522;6.302;2023-03-31T17:39:13;2.47;;;0.85;;
22201;SDS011;11266;51.522;6.302;2023-03-31T17:39:58;6.78;;;1.45;;
22201;SDS011;11266;51.522;6.302;2023-03-31T17:40:44;6.82;;;1.33;;
22201;SDS011;11266;51.522;6.302;2023-03-31T17:41:31;5.80;;;0.90;;
22201;SDS011;11266;51.522;6.302;2023-03-31T17:42:17;3.50;;;0.75;;
22201;SDS011;11266;51.522;6.302;2023-03-31T17:43:04;3.03;;;1.15;;
22201;SDS011;11266;51.522;6.302;2023-03-31T17:43:53;1.95;;;0.80;;
22201;SDS011;11266;51.522;6.302;2023-03-31T17:44:39;2.13;;;0.80;;
22201;SDS011;11266;51.522;6.302;2023-03-31T17:45:25;2.60;;;0.80;;
22201;SDS011;11266;51.522;6.302;2023-03-31T17:46:11;3.05;;;0.73;;
22201;SDS011;11266;51.522;6.302;2023-03-31T17:46:56;2.67;;;1.02;;
22201;SDS011;11266;51.522;6.302;2023-03-31T17:47:45;3.38;;;1.08;;
22201;SDS011;11266;51.522;6.302;2023-03-31T17:48:33;1.92;;;0.73;;
22201;SDS011;11266;51.522;6.302;2023-03-31T17:49:19;2.65;;;0.90;;
22201;SDS011;11266;51.522;6.302;2023-03-31T17:50:05;2.63;;;0.80;;
22201;SDS011;11266;51.522;6.302;2023-03-31T17:50:52;2.53;;;0.98;;
22201;SDS011;11266;51.522;6.302;2023-03-31T17:51:47;3.63;;;1.13;;
22201;SDS011;11266;51.522;6.302;2023-03-31T17:52:33;2.85;;;0.85;;
22201;SDS011;11266;51.522;6.302;2023-03-31T17:53:19;4.18;;;1.10;;
22201;SDS011;11266;51.522;6.302;2023-03-31T17:54:05;2.47;;;0.80;;
22201;SDS011;11266;51.522;6.302;2023-03-31T17:54:51;3.47;;;0.80;;
22201;SDS011;11266;51.522;6.302;2023-03-31T17:55:37;3.22;;;1.00;;
22201;SDS011;11266;51.522;6.302;2023-03-31T17:56:22;2.20;;;1.00;;
22201;SDS011;11266;51.522;6.302;2023-03-31T17:57:13;4.80;;;1.13;;
22201;SDS011;11266;51.522;6.302;2023-03-31T17:57:58;4.07;;;1.00;;
22201;SDS011;11266;51.522;6.302;2023-03-31T17:58:45;4.45;;;1.08;;
22201;SDS011;11266;51.522;6.302;2023-03-31T17:59:31;3.80;;;1.30;;
22201;SDS011;11266;51.522;6.302;2023-03-31T18:00:16;3.45;;;1.25;;
22201;SDS011;11266;51.522;6.302;2023-03-31T18:01:04;3.50;;;1.02;;
22201;SDS011;11266;51.522;6.302;2023-03-31T18:01:51;4.65;;;1.10;;
22201;SDS011;11266;51.522;6.302;2023-03-31T18:02:39;2.80;;;0.80;;
22201;SDS011;11266;51.522;6.302;2023-03-31T18:03:28;3.05;;;1.00;;
22201;SDS011;11266;51.522;6.302;2023-03-31T18:04:15;2.00;;;0.88;;
22201;SDS011;11266;51.522;6.302;2023-03-31T18:05:01;3.38;;;1.13;;
22201;SDS011;11266;51.522;6.302;2023-03-31T18:05:47;2.47;;;0.90;;
22201;SDS011;11266;51.522;6.302;2023-03-31T18:06:33;3.28;;;1.20;;
22201;SDS011;11266;51.522;6.302;2023-03-31T18:07:19;8.50;;;1.15;;
22201;SDS011;11266;51.522;6.302;2023-03-31T18:08:07;2.70;;;1.00;;
22201;SDS011;11266;51.522;6.302;2023-03-31T18:08:53;4.40;;;1.00;;